Time;durP1;ratioP1;P1;durP2;ratioP2;P2;SDS_P1;SDS_P2;PMS_P1;PMS_P2;Temp;Humidity;BMP_temperature;BMP_pressure;BME280_temperature;BME280_humidity;BME280_pressure;Samples;Min_cycle;Max_cycle;Signal;HPM_P1;HPM_P2
2023/06/14 00:00:40;;;;;;;12.15;8.43;;;18.10;99.90;;;;;;5053805;28;20048;-64
2023/06/14 00:03:44;;;;;;;15.02;7.97;;;18.10;99.90;;;;;;5053771;28;20696;-65
2023/06/14 00:06:50;;;;;;;10.63;8.07;;;18.20;99.90;;;;;;5053709;28;20391;-64
2023/06/14 00:09:54;;;;;;;14.35;8.95;;;18.10;99.90;;;;;;5053591;28;20035;-64
2023/06/14 00:12:59;;;;;;;17.05;9.15;;;18.10;99.90;;;;;;5052922;28;20431;-64
2023/06/14 00:16:03;;;;;;;16.40;8.73;;;18.10;99.90;;;;;;5053499;28;20060;-64
2023/06/14 00:19:10;;;;;;;13.95;8.93;;;18.00;99.90;;;;;;5053134;28;20043;-64
2023/06/14 00:22:13;;;;;;;15.68;9.20;;;18.00;99.90;;;;;;5052906;28;20044;-64
2023/06/14 00:25:18;;;;;;;13.68;9.75;;;18.00;99.90;;;;;;5053391;28;20502;-64
2023/06/14 00:28:22;;;;;;;16.17;10.43;;;17.90;99.90;;;;;;5052836;28;20395;-63
2023/06/14 00:31:27;;;;;;;25.45;11.25;;;17.90;99.90;;;;;;5052610;28;20501;-64
2023/06/14 00:34:32;;;;;;;18.75;11.45;;;17.90;99.90;;;;;;5052629;28;20044;-64
2023/06/14 00:37:36;;;;;;;64.00;13.00;;;17.80;99.90;;;;;;5053148;28;20048;-63
2023/06/14 00:40:40;;;;;;;62.88;12.60;;;17.80;99.90;;;;;;5052968;28;20063;-64
2023/06/14 00:43:44;;;;;;;21.27;10.45;;;17.70;99.90;;;;;;5052598;28;20391;-64
2023/06/14 00:46:48;;;;;;;45.75;12.77;;;17.60;99.90;;;;;;5052053;28;20060;-64
2023/06/14 00:49:55;;;;;;;119.22;15.27;;;17.60;99.90;;;;;;5052960;28;20048;-63
2023/06/14 00:53:01;;;;;;;289.15;21.35;;;17.60;99.90;;;;;;5052138;28;20052;-63
2023/06/14 00:56:05;;;;;;;120.35;15.95;;;17.50;99.90;;;;;;5051888;28;20052;-63
2023/06/14 00:59:11;;;;;;;26.70;11.40;;;17.50;99.90;;;;;;5052544;28;20040;-64
2023/06/14 01:02:16;;;;;;;29.83;12.10;;;17.40;99.90;;;;;;5051857;28;20390;-63
2023/06/14 01:05:39;;;;;;;14.70;10.63;;;17.50;99.90;;;;;;5051907;28;20048;-63
2023/06/14 01:09:17;;;;;;;15.63;10.23;;;17.60;99.90;;;;;;5052523;28;20116;-64
2023/06/14 01:12:59;;;;;;;12.88;9.23;;;17.60;99.90;;;;;;5051897;28;20044;-64
2023/06/14 01:16:05;;;;;;;11.45;7.10;;;17.60;99.90;;;;;;5028775;28;20044;-64
2023/06/14 01:19:13;;;;;;;11.07;8.20;;;17.70;99.90;;;;;;5051154;28;20091;-64
2023/06/14 01:22:18;;;;;;;14.68;9.43;;;17.70;99.90;;;;;;5051834;28;20361;-63
2023/06/14 01:25:22;;;;;;;19.23;10.55;;;17.70;99.90;;;;;;5052408;28;20051;-64
2023/06/14 01:28:31;;;;;;;13.05;9.13;;;17.70;99.90;;;;;;5051018;28;20051;-64
2023/06/14 01:31:41;;;;;;;11.55;8.23;;;17.70;99.90;;;;;;5051621;28;20044;-64
2023/06/14 01:34:45;;;;;;;13.90;8.98;;;17.80;99.90;;;;;;5052131;28;20044;-64
2023/06/14 01:37:50;;;;;;;17.45;7.70;;;17.70;99.90;;;;;;5052725;28;20048;-64
2023/06/14 01:40:56;;;;;;;10.93;8.18;;;17.70;99.90;;;;;;5052053;28;20537;-64
2023/06/14 01:44:04;;;;;;;11.07;7.60;;;17.70;99.90;;;;;;5050514;28;20040;-64
2023/06/14 01:47:11;;;;;;;12.45;8.55;;;17.70;99.90;;;;;;5051765;28;20044;-64
2023/06/14 01:50:16;;;;;;;15.40;7.68;;;17.60;99.90;;;;;;5051968;28;20044;-64
2023/06/14 01:53:20;;;;;;;13.10;8.00;;;17.50;99.90;;;;;;5051697;28;20044;-64
2023/06/14 01:56:26;;;;;;;12.55;8.27;;;17.50;99.90;;;;;;5051897;28;20044;-64
2023/06/14 01:59:31;;;;;;;11.30;8.18;;;17.40;99.90;;;;;;5050667;28;20064;-64
2023/06/14 02:02:35;;;;;;;10.35;8.43;;;17.40;99.90;;;;;;5050248;28;20048;-64
2023/06/14 02:05:39;;;;;;;11.70;8.05;;;17.40;99.90;;;;;;5050577;28;20514;-64
2023/06/14 02:08:44;;;;;;;16.35;9.02;;;17.40;99.90;;;;;;5050459;28;20040;-63
2023/06/14 02:11:48;;;;;;;11.55;8.05;;;17.40;99.90;;;;;;5050059;28;20038;-64
2023/06/14 02:14:52;;;;;;;13.02;8.27;;;17.30;99.90;;;;;;5049302;28;20044;-64
2023/06/14 02:17:56;;;;;;;12.63;8.25;;;17.30;99.90;;;;;;5051224;28;20048;-64
2023/06/14 02:21:00;;;;;;;14.02;7.88;;;17.30;99.90;;;;;;5051322;28;20052;-64
2023/06/14 02:24:04;;;;;;;11.73;8.57;;;17.30;99.90;;;;;;5050997;28;20040;-64
2023/06/14 02:27:10;;;;;;;11.23;8.15;;;17.40;99.90;;;;;;5051084;28;20403;-64
2023/06/14 02:30:15;;;;;;;13.13;8.18;;;17.30;99.90;;;;;;5050864;28;20048;-64
2023/06/14 02:33:19;;;;;;;17.00;9.25;;;17.40;99.90;;;;;;5050196;28;20048;-64
2023/06/14 02:36:24;;;;;;;13.77;8.07;;;17.40;99.90;;;;;;5049605;28;20059;-64
2023/06/14 02:39:29;;;;;;;12.48;8.23;;;17.50;99.90;;;;;;5050612;28;20040;-64
2023/06/14 02:42:33;;;;;;;12.35;7.57;;;17.50;99.90;;;;;;5050622;28;20486;-65
2023/06/14 02:45:37;;;;;;;9.20;6.53;;;17.50;99.90;;;;;;5049695;28;20045;-63
2023/06/14 02:48:41;;;;;;;9.50;5.93;;;17.50;99.90;;;;;;5050663;28;20056;-64
2023/06/14 02:51:47;;;;;;;9.68;6.07;;;17.50;99.90;;;;;;5050347;28;20045;-64
2023/06/14 02:54:51;;;;;;;11.70;5.30;;;17.50;99.90;;;;;;5049753;28;20491;-64
2023/06/14 02:57:55;;;;;;;6.18;5.05;;;17.50;99.90;;;;;;5050478;28;20459;-64
2023/06/14 03:01:03;;;;;;;10.05;5.22;;;17.50;99.90;;;;;;5049600;28;20052;-63
2023/06/14 03:04:08;;;;;;;6.93;4.80;;;17.50;99.90;;;;;;5049357;28;20225;-64
2023/06/14 03:07:19;;;;;;;9.82;5.93;;;17.50;99.90;;;;;;5049520;28;20143;-64
2023/06/14 03:10:25;;;;;;;14.05;6.70;;;17.40;99.90;;;;;;5049513;28;20497;-63
2023/06/14 03:13:32;;;;;;;12.35;7.13;;;17.30;99.90;;;;;;5049315;28;20339;-64
2023/06/14 03:16:37;;;;;;;10.45;6.90;;;17.30;99.90;;;;;;5049435;28;20525;-64
2023/06/14 03:19:41;;;;;;;12.38;6.97;;;17.20;99.90;;;;;;5049341;28;20048;-64
2023/06/14 03:22:45;;;;;;;13.32;8.07;;;17.20;99.90;;;;;;5049211;28;20047;-64
2023/06/14 03:25:51;;;;;;;14.20;6.90;;;17.20;99.90;;;;;;5052293;28;20494;-63
2023/06/14 03:28:55;;;;;;;9.93;6.53;;;17.10;99.90;;;;;;5053372;28;20052;-64
2023/06/14 03:32:02;;;;;;;12.15;6.85;;;17.10;99.90;;;;;;5053018;28;20411;-64
2023/06/14 03:35:32;;;;;;;6.88;5.72;;;17.10;99.90;;;;;;5054268;28;20052;-64
2023/06/14 03:38:37;;;;;;;12.73;7.47;;;17.10;99.90;;;;;;5054192;28;20037;-64
2023/06/14 03:41:42;;;;;;;10.38;6.25;;;17.10;99.90;;;;;;5052941;28;20239;-64
2023/06/14 03:44:46;;;;;;;11.57;6.53;;;17.10;99.90;;;;;;5053413;28;20056;-63
2023/06/14 03:47:52;;;;;;;9.13;6.32;;;17.20;99.90;;;;;;5053006;28;20056;-65
2023/06/14 03:50:56;;;;;;;9.45;5.88;;;17.20;99.90;;;;;;5053213;28;20059;-65
2023/06/14 03:54:00;;;;;;;16.90;6.47;;;17.30;99.90;;;;;;5052860;28;20045;-64
2023/06/14 03:57:05;;;;;;;10.93;6.18;;;17.20;99.90;;;;;;5052933;28;20390;-64
2023/06/14 04:00:11;;;;;;;6.85;5.88;;;17.20;99.90;;;;;;5052638;28;20052;-64
2023/06/14 04:03:19;;;;;;;8.55;6.90;;;17.10;99.90;;;;;;5053653;28;20049;-64
2023/06/14 04:06:24;;;;;;;11.75;6.93;;;17.20;99.90;;;;;;5052554;28;20051;-64
2023/06/14 04:09:29;;;;;;;14.13;7.38;;;17.20;99.90;;;;;;5053745;28;20288;-64
2023/06/14 04:12:35;;;;;;;8.52;6.55;;;17.30;99.90;;;;;;5053217;28;20064;-64
2023/06/14 04:15:42;;;;;;;11.80;7.35;;;17.30;99.90;;;;;;5052739;28;20041;-64
2023/06/14 04:18:48;;;;;;;14.98;9.13;;;17.20;99.90;;;;;;5052255;28;20044;-64
2023/06/14 04:21:52;;;;;;;17.08;9.38;;;17.10;99.90;;;;;;5052093;28;20040;-64
2023/06/14 04:24:57;;;;;;;15.02;8.82;;;17.10;99.90;;;;;;5052585;28;20056;-64
2023/06/14 04:28:01;;;;;;;16.88;9.35;;;17.10;99.90;;;;;;5052537;28;20052;-64
2023/06/14 04:31:08;;;;;;;10.95;7.35;;;17.20;99.90;;;;;;5052475;28;20055;-64
2023/06/14 04:34:18;;;;;;;12.95;8.38;;;17.20;99.90;;;;;;5052149;28;20049;-64
2023/06/14 04:37:33;;;;;;;11.73;8.05;;;17.30;99.90;;;;;;5051672;28;20043;-64
2023/06/14 04:40:42;;;;;;;11.38;6.70;;;17.50;99.90;;;;;;5052618;28;20052;-64
2023/06/14 04:43:48;;;;;;;12.13;8.13;;;17.60;99.90;;;;;;5051983;28;20124;-64
2023/06/14 04:46:53;;;;;;;10.65;7.80;;;17.90;99.90;;;;;;5051990;28;20044;-64
2023/06/14 04:50:00;;;;;;;12.25;7.13;;;18.10;99.90;;;;;;5051996;28;20051;-64
2023/06/14 04:53:08;;;;;;;20.52;7.35;;;18.50;99.90;;;;;;5051407;28;20060;-64
2023/06/14 04:56:12;;;;;;;10.60;6.85;;;18.80;99.90;;;;;;5051617;28;20051;-64
2023/06/14 04:59:17;;;;;;;13.52;6.93;;;20.00;99.90;;;;;;5052668;28;20047;-63
2023/06/14 05:02:25;;;;;;;8.05;6.15;;;21.30;99.90;;;;;;5051809;28;20059;-64
2023/06/14 05:05:31;;;;;;;13.02;7.35;;;20.70;99.90;;;;;;5051843;28;20044;-64
2023/06/14 05:08:37;;;;;;;9.60;6.72;;;20.00;99.90;;;;;;5051616;28;20052;-63
2023/06/14 05:11:44;;;;;;;10.10;5.72;;;20.60;99.90;;;;;;5051414;28;20044;-64
2023/06/14 05:14:50;;;;;;;12.00;5.05;;;20.60;99.90;;;;;;5051752;28;20048;-64
2023/06/14 05:17:56;;;;;;;7.28;4.93;;;21.80;99.90;;;;;;5051797;28;20538;-64
2023/06/14 05:21:01;;;;;;;6.82;4.80;;;23.10;99.90;;;;;;5052812;28;20054;-64
2023/06/14 05:24:05;;;;;;;8.60;4.78;;;25.00;99.90;;;;;;5052754;28;20056;-64
2023/06/14 05:27:09;;;;;;;7.95;5.60;;;24.50;99.90;;;;;;5052677;28;20049;-64
2023/06/14 05:30:15;;;;;;;8.38;5.13;;;22.70;99.90;;;;;;5052487;28;20056;-64
2023/06/14 05:33:19;;;;;;;7.68;4.85;;;21.60;99.90;;;;;;5051330;28;20371;-63
2023/06/14 05:36:23;;;;;;;7.18;5.13;;;20.90;99.90;;;;;;5051571;28;20040;-64
2023/06/14 05:39:27;;;;;;;7.03;5.47;;;20.60;99.90;;;;;;5051407;28;20041;-63
2023/06/14 05:42:31;;;;;;;7.07;4.93;;;20.60;99.90;;;;;;5051387;28;20586;-63
2023/06/14 05:45:35;;;;;;;9.27;5.40;;;20.30;99.90;;;;;;5051563;28;20490;-64
2023/06/14 05:48:39;;;;;;;12.52;5.53;;;20.30;99.90;;;;;;5050667;28;20044;-64
2023/06/14 05:51:43;;;;;;;8.35;4.18;;;20.20;99.90;;;;;;5051396;28;20052;-63
2023/06/14 05:54:47;;;;;;;10.93;5.43;;;20.20;99.90;;;;;;5052155;28;20040;-64
2023/06/14 05:57:51;;;;;;;11.73;6.05;;;20.00;99.90;;;;;;5052202;28;20051;-64
2023/06/14 06:00:57;;;;;;;11.45;6.45;;;19.40;99.90;;;;;;5051214;28;20047;-64
2023/06/14 06:04:00;;;;;;;12.02;6.55;;;19.20;99.90;;;;;;5051470;28;20064;-64
2023/06/14 06:07:05;;;;;;;7.55;5.82;;;19.10;99.90;;;;;;5051479;28;20055;-63
2023/06/14 06:10:09;;;;;;;10.30;6.70;;;19.00;99.90;;;;;;5051140;28;20502;-63
2023/06/14 06:13:13;;;;;;;10.68;6.70;;;19.00;99.90;;;;;;5031144;28;20628;-64
2023/06/14 06:16:17;;;;;;;11.10;5.65;;;19.10;99.90;;;;;;5031697;28;20045;-64
2023/06/14 06:19:21;;;;;;;8.27;5.18;;;19.50;99.90;;;;;;5031610;28;20048;-64
2023/06/14 06:22:25;;;;;;;7.30;4.55;;;20.30;99.90;;;;;;5030962;28;20049;-64
2023/06/14 06:25:31;;;;;;;4.53;4.07;;;21.00;99.90;;;;;;5030386;28;20506;-64
2023/06/14 06:28:35;;;;;;;6.80;4.25;;;21.40;99.90;;;;;;5046910;28;20047;-64
2023/06/14 06:31:40;;;;;;;4.85;2.85;;;21.30;99.90;;;;;;5045142;28;20052;-64
2023/06/14 06:34:44;;;;;;;5.65;2.72;;;21.60;99.90;;;;;;5046339;28;20040;-65
2023/06/14 06:37:49;;;;;;;4.05;2.63;;;22.20;99.90;;;;;;5042296;28;20503;-65
2023/06/14 06:40:54;;;;;;;5.88;2.95;;;23.40;99.90;;;;;;5045746;28;20045;-65
2023/06/14 06:43:58;;;;;;;3.58;2.70;;;25.10;99.90;;;;;;5040695;28;20040;-64
2023/06/14 06:47:06;;;;;;;3.47;2.40;;;25.80;99.90;;;;;;5043758;28;20043;-65
2023/06/14 06:50:10;;;;;;;2.78;2.03;;;27.10;99.90;;;;;;5046933;28;20032;-64
2023/06/14 06:53:15;;;;;;;4.25;2.45;;;28.50;99.90;;;;;;5048034;28;20064;-65
2023/06/14 06:56:19;;;;;;;4.70;2.17;;;28.40;99.90;;;;;;5046751;28;20048;-64
2023/06/14 06:59:23;;;;;;;4.20;2.00;;;27.40;99.90;;;;;;5046210;28;20040;-64
2023/06/14 07:02:30;;;;;;;3.95;2.00;;;27.20;99.90;;;;;;5044512;28;20624;-64
2023/06/14 07:05:34;;;;;;;2.30;1.95;;;27.30;99.90;;;;;;5050234;28;20075;-64
2023/06/14 07:08:38;;;;;;;5.88;2.00;;;28.10;99.90;;;;;;5049691;28;20051;-65
2023/06/14 07:11:45;;;;;;;5.47;2.30;;;27.20;99.90;;;;;;5029619;28;20056;-64
2023/06/14 07:14:49;;;;;;;6.15;2.80;;;25.70;99.90;;;;;;5040236;28;20048;-65
2023/06/14 07:17:53;;;;;;;7.35;2.45;;;25.40;99.90;;;;;;5044379;28;20120;-64
2023/06/14 07:20:57;;;;;;;3.63;2.40;;;24.40;99.90;;;;;;5048310;28;20063;-64
2023/06/14 07:24:01;;;;;;;4.85;2.33;;;24.30;99.90;;;;;;5047742;28;20387;-64
2023/06/14 07:27:05;;;;;;;4.05;2.50;;;24.80;99.90;;;;;;5045666;28;20056;-65
2023/06/14 07:30:10;;;;;;;3.95;2.58;;;26.10;99.90;;;;;;5046751;28;20044;-65
2023/06/14 07:33:14;;;;;;;4.20;2.95;;;26.50;99.90;;;;;;5045500;28;20029;-64
2023/06/14 07:36:18;;;;;;;4.80;2.60;;;26.90;99.90;;;;;;5047827;28;20040;-65
2023/06/14 07:39:22;;;;;;;6.72;3.00;;;26.60;99.90;;;;;;5045337;28;20036;-65
2023/06/14 07:42:27;;;;;;;3.67;2.70;;;26.70;99.90;;;;;;5042871;28;20064;-65
2023/06/14 07:45:31;;;;;;;4.90;2.80;;;27.10;99.90;;;;;;5047969;28;20383;-65
2023/06/14 07:48:35;;;;;;;9.00;3.00;;;27.50;99.90;;;;;;5045466;28;20048;-65
2023/06/14 07:51:39;;;;;;;4.80;2.83;;;26.30;99.90;;;;;;5048941;28;20055;-65
2023/06/14 07:54:43;;;;;;;7.18;3.05;;;26.40;99.90;;;;;;5046186;28;20060;-65
2023/06/14 07:57:46;;;;;;;7.40;3.50;;;26.20;99.90;;;;;;5045361;28;20040;-65
2023/06/14 08:00:51;;;;;;;11.48;3.10;;;25.30;99.90;;;;;;5047102;28;20045;-65
2023/06/14 08:04:01;;;;;;;2.97;2.33;;;25.60;99.90;;;;;;5049267;28;20048;-65
2023/06/14 08:07:06;;;;;;;7.38;2.92;;;27.20;99.90;;;;;;5019058;28;20123;-65
2023/06/14 08:10:10;;;;;;;3.78;2.45;;;28.60;99.90;;;;;;5052429;28;20032;-65
2023/06/14 08:13:14;;;;;;;4.25;2.30;;;28.50;99.90;;;;;;5050915;28;20407;-65
2023/06/14 08:16:18;;;;;;;2.45;2.20;;;27.40;99.90;;;;;;5052457;28;20044;-64
2023/06/14 08:19:22;;;;;;;4.97;2.83;;;27.00;99.90;;;;;;5044212;28;20495;-65
2023/06/14 08:22:28;;;;;;;3.95;2.38;;;27.00;99.90;;;;;;5049261;28;20045;-65
2023/06/14 08:25:32;;;;;;;6.20;2.97;;;26.80;99.90;;;;;;5050806;28;20040;-64
2023/06/14 08:28:36;;;;;;;3.63;2.67;;;24.80;99.90;;;;;;5050391;28;20044;-65
2023/06/14 08:31:40;;;;;;;5.57;2.83;;;25.00;99.90;;;;;;5053365;28;20059;-69
2023/06/14 08:34:45;;;;;;;11.70;3.20;;;25.30;99.90;;;;;;5052602;28;20048;-69
2023/06/14 08:37:49;;;;;;;3.20;2.90;;;25.90;99.90;;;;;;5046986;28;20032;-69
2023/06/14 08:40:58;;;;;;;3.92;2.70;;;26.50;99.90;;;;;;5048247;28;20029;-69
2023/06/14 08:44:02;;;;;;;6.97;2.70;;;26.90;99.90;;;;;;5049143;28;20492;-69
2023/06/14 08:47:08;;;;;;;2.92;2.63;;;27.70;99.90;;;;;;5047248;28;20056;-69
2023/06/14 08:50:15;;;;;;;7.43;3.08;;;28.20;99.90;;;;;;5045920;28;20506;-69
2023/06/14 08:53:22;;;;;;;5.07;3.00;;;26.70;99.90;;;;;;5049173;28;20337;-69
2023/06/14 08:56:28;;;;;;;4.93;2.83;;;25.00;99.90;;;;;;5043393;28;20061;-70
2023/06/14 08:59:39;;;;;;;6.43;3.10;;;25.80;99.90;;;;;;5046556;28;20044;-69
2023/06/14 09:02:44;;;;;;;3.63;2.90;;;26.00;99.90;;;;;;5048875;28;20486;-70
2023/06/14 09:05:49;;;;;;;5.10;2.90;;;26.40;99.90;;;;;;5045614;28;20609;-69
2023/06/14 09:08:57;;;;;;;2.92;2.63;;;26.00;99.90;;;;;;5049054;28;20041;-69
2023/06/14 09:12:01;;;;;;;4.53;2.78;;;27.10;99.90;;;;;;5043779;28;20036;-70
2023/06/14 09:15:08;;;;;;;5.80;2.38;;;28.30;99.90;;;;;;5048584;28;20044;-69
2023/06/14 09:18:12;;;;;;;4.57;2.70;;;29.60;99.90;;;;;;5044522;28;20064;-69
2023/06/14 09:21:17;;;;;;;5.22;2.10;;;29.50;99.90;;;;;;5046370;28;20033;-69
2023/06/14 09:24:25;;;;;;;4.55;2.38;;;29.40;99.90;;;;;;5047671;28;20048;-69
2023/06/14 09:27:29;;;;;;;5.25;2.10;;;30.90;99.90;;;;;;5041299;28;20033;-70
2023/06/14 09:30:33;;;;;;;4.53;2.63;;;33.10;99.90;;;;;;5046956;28;20376;-70
2023/06/14 09:33:38;;;;;;;3.25;2.03;;;34.70;99.90;;;;;;5049680;28;20376;-70
2023/06/14 09:36:42;;;;;;;2.90;2.45;;;35.00;99.90;;;;;;5040359;28;20041;-69
2023/06/14 09:39:50;;;;;;;4.80;2.53;;;30.30;99.90;;;;;;5043897;28;20033;-70
2023/06/14 09:42:57;;;;;;;3.85;2.40;;;28.40;99.90;;;;;;5049803;28;20051;-69
2023/06/14 09:46:03;;;;;;;3.22;2.13;;;28.00;99.90;;;;;;5047995;28;20510;-69
2023/06/14 09:49:08;;;;;;;5.80;2.13;;;27.80;99.90;;;;;;5047447;28;20044;-68
2023/06/14 09:52:16;;;;;;;5.30;2.75;;;28.10;99.90;;;;;;5047273;28;20045;-69
2023/06/14 09:55:28;;;;;;;6.05;3.00;;;28.30;99.90;;;;;;5041632;28;20045;-69
2023/06/14 09:58:37;;;;;;;6.78;2.38;;;27.70;99.90;;;;;;5046607;28;20792;-69
2023/06/14 10:01:42;;;;;;;4.15;2.50;;;28.90;99.90;;;;;;5044649;28;20037;-70
2023/06/14 10:05:06;;;;;;;3.60;2.25;;;28.30;99.90;;;;;;5045205;28;20041;-69
2023/06/14 10:08:17;;;;;;;5.68;2.30;;;28.30;99.90;;;;;;5044694;28;20045;-69
2023/06/14 10:11:22;;;;;;;3.15;2.20;;;28.20;99.90;;;;;;5048904;28;20036;-69
2023/06/14 10:14:27;;;;;;;3.30;2.30;;;28.20;99.90;;;;;;5041798;28;20037;-69
2023/06/14 10:17:37;;;;;;;4.25;2.20;;;28.00;99.90;;;;;;5046141;28;20045;-69
2023/06/14 10:21:16;;;;;;;4.47;2.00;;;28.80;99.90;;;;;;5049902;28;20033;-69
2023/06/14 10:24:32;;;;;;;4.60;2.60;;;30.50;99.90;;;;;;5047324;28;20495;-70
2023/06/14 10:27:37;;;;;;;9.82;2.60;;;33.40;99.90;;;;;;5046998;28;20041;-70
2023/06/14 10:31:20;;;;;;;3.60;2.50;;;33.40;99.90;;;;;;5043558;28;20051;-70
2023/06/14 10:34:26;;;;;;;2.38;1.98;;;35.20;99.90;;;;;;5047928;28;20372;-70
2023/06/14 10:37:31;;;;;;;2.78;1.80;;;37.00;98.80;;;;;;5044119;28;20368;-70
2023/06/14 10:40:39;;;;;;;4.25;2.10;;;36.20;97.70;;;;;;5048608;28;20597;-70
2023/06/14 10:43:49;;;;;;;5.32;2.75;;;34.50;99.00;;;;;;5049004;28;20041;-70
2023/06/14 10:46:55;;;;;;;4.63;2.67;;;33.10;99.80;;;;;;5047229;28;20407;-69
2023/06/14 10:50:14;;;;;;;8.40;3.65;;;32.00;99.90;;;;;;5044700;28;20045;-70
2023/06/14 10:53:23;;;;;;;3.38;2.60;;;30.90;99.90;;;;;;5048352;28;20036;-70
2023/06/14 10:56:32;;;;;;;4.50;3.08;;;30.50;99.90;;;;;;5047568;28;20036;-69
2023/06/14 10:59:37;;;;;;;4.13;2.88;;;30.00;99.90;;;;;;5048560;28;20100;-70
2023/06/14 11:03:05;;;;;;;5.53;2.50;;;29.80;99.90;;;;;;5043100;28;20055;-70
2023/06/14 11:06:14;;;;;;;4.80;2.20;;;29.80;99.90;;;;;;5046721;28;20388;-69
2023/06/14 11:09:39;;;;;;;4.28;2.15;;;30.10;99.90;;;;;;5045366;28;20028;-70
2023/06/14 11:12:48;;;;;;;2.83;2.50;;;29.90;99.90;;;;;;5038901;28;20506;-70
2023/06/14 11:15:57;;;;;;;3.58;2.53;;;29.80;99.90;;;;;;5044675;28;20486;-69
2023/06/14 11:19:05;;;;;;;3.50;2.65;;;29.90;99.90;;;;;;5046848;28;20123;-70
2023/06/14 11:22:10;;;;;;;4.90;2.30;;;31.80;99.90;;;;;;5048858;28;20392;-70
2023/06/14 11:25:15;;;;;;;4.72;2.40;;;31.70;99.90;;;;;;5049872;28;20052;-70
2023/06/14 11:28:21;;;;;;;3.60;2.03;;;32.10;99.90;;;;;;5035678;28;20104;-71
2023/06/14 11:31:29;;;;;;;1.92;1.60;;;32.20;99.90;;;;;;5036023;28;20044;-70
2023/06/14 11:34:33;;;;;;;2.58;1.80;;;32.60;99.90;;;;;;5042455;28;20052;-70
2023/06/14 11:37:41;;;;;;;2.20;1.75;;;31.50;99.90;;;;;;5044045;28;20032;-70
2023/06/14 11:40:45;;;;;;;2.00;1.70;;;31.90;99.90;;;;;;5049734;28;20043;-70
2023/06/14 11:43:53;;;;;;;3.45;2.08;;;31.70;99.90;;;;;;5047869;28;20068;-70
2023/06/14 11:47:03;;;;;;;5.35;1.60;;;32.00;99.90;;;;;;5049220;28;20072;-70
2023/06/14 11:50:09;;;;;;;5.55;1.75;;;32.20;99.40;;;;;;5053396;28;20044;-70
2023/06/14 11:53:16;;;;;;;2.38;1.40;;;32.00;99.80;;;;;;5050419;28;20044;-70
2023/06/14 11:56:21;;;;;;;1.42;1.30;;;31.90;98.60;;;;;;5049673;28;20044;-70
2023/06/14 11:59:25;;;;;;;2.65;1.55;;;31.40;98.40;;;;;;5051844;28;20044;-70
2023/06/14 12:02:31;;;;;;;2.38;1.27;;;31.10;99.80;;;;;;5051846;28;20513;-69
2023/06/14 12:05:36;;;;;;;2.22;1.45;;;30.90;99.30;;;;;;5047816;28;20486;-70
2023/06/14 12:08:42;;;;;;;2.80;1.77;;;30.60;99.50;;;;;;5041736;28;20498;-70
2023/06/14 12:11:47;;;;;;;2.35;1.40;;;30.40;99.80;;;;;;5047062;28;20482;-70
2023/06/14 12:14:52;;;;;;;4.40;1.52;;;30.10;99.90;;;;;;5051781;28;20052;-70
2023/06/14 12:17:58;;;;;;;4.78;1.80;;;30.00;99.70;;;;;;5051267;28;20049;-70
2023/06/14 12:21:10;;;;;;;2.25;1.58;;;29.50;99.90;;;;;;5052253;28;20055;-69
2023/06/14 12:24:14;;;;;;;2.13;1.60;;;27.80;99.90;;;;;;5032338;28;20396;-70
2023/06/14 12:27:23;;;;;;;2.20;1.67;;;27.80;99.90;;;;;;5052636;28;20047;-69
2023/06/14 12:30:28;;;;;;;7.78;2.72;;;27.30;99.90;;;;;;5051326;28;20059;-68
2023/06/14 13:17:21;;;;;;;6.68;3.90;;;18.60;99.90;;;;;;5047199;28;20044;-69
2023/06/14 13:20:25;;;;;;;7.68;4.13;;;18.70;99.90;;;;;;5044586;28;20056;-69
2023/06/14 13:23:29;;;;;;;9.65;4.90;;;19.00;99.90;;;;;;5051942;28;20407;-69
2023/06/14 13:26:34;;;;;;;7.60;4.88;;;19.30;99.90;;;;;;5052049;28;20051;-70
2023/06/14 13:29:39;;;;;;;4.85;3.60;;;19.60;99.90;;;;;;5049916;28;20355;-70
2023/06/14 13:32:44;;;;;;;6.10;3.85;;;19.70;99.90;;;;;;5046095;28;20044;-70
2023/06/14 13:35:48;;;;;;;6.07;3.78;;;19.70;99.90;;;;;;5047137;28;20044;-70
2023/06/14 13:38:54;;;;;;;6.97;3.92;;;19.90;99.90;;;;;;5051840;28;20035;-70
2023/06/14 13:41:58;;;;;;;4.25;3.42;;;20.00;99.90;;;;;;5047996;28;20051;-71
2023/06/14 13:45:03;;;;;;;9.25;3.33;;;20.20;99.90;;;;;;5049048;28;20052;-72
2023/06/14 13:48:08;;;;;;;3.58;2.72;;;20.20;99.90;;;;;;5050581;28;20514;-71
2023/06/14 13:51:12;;;;;;;7.38;3.60;;;20.10;99.90;;;;;;5050131;28;20494;-69
2023/06/14 13:54:21;;;;;;;4.43;2.70;;;19.60;99.90;;;;;;5045876;28;20056;-69
2023/06/14 13:57:32;;;;;;;3.80;2.50;;;19.40;99.90;;;;;;5049307;28;20043;-69
2023/06/14 14:00:40;;;;;;;4.13;2.92;;;19.20;99.90;;;;;;5049661;28;20219;-69
2023/06/14 14:03:45;;;;;;;6.72;3.08;;;19.40;99.90;;;;;;5043031;28;20048;-68
2023/06/14 14:06:49;;;;;;;3.63;2.90;;;19.80;99.90;;;;;;5046628;28;20064;-69
2023/06/14 14:09:54;;;;;;;3.30;2.28;;;19.90;99.90;;;;;;5052438;28;20056;-70
2023/06/14 14:12:59;;;;;;;5.25;2.50;;;20.20;99.90;;;;;;5051307;28;20044;-70
2023/06/14 14:16:04;;;;;;;3.65;2.30;;;20.50;99.90;;;;;;5049344;28;20506;-70
2023/06/14 14:19:07;;;;;;;5.53;2.53;;;20.80;99.90;;;;;;5049401;28;20044;-70
2023/06/14 14:22:12;;;;;;;6.82;3.05;;;21.10;99.90;;;;;;5050928;28;20044;-70
2023/06/14 14:25:17;;;;;;;7.55;2.90;;;21.30;99.90;;;;;;5048951;28;20068;-70
2023/06/14 14:28:21;;;;;;;3.78;2.17;;;21.30;99.90;;;;;;5046753;28;20088;-70
2023/06/14 14:31:25;;;;;;;6.95;2.30;;;21.10;99.90;;;;;;5050114;28;20047;-70
2023/06/14 14:34:31;;;;;;;9.65;2.85;;;20.80;99.90;;;;;;5046209;28;20328;-70
2023/06/14 14:37:35;;;;;;;3.40;2.35;;;20.70;99.90;;;;;;5049479;28;20078;-70
2023/06/14 14:40:40;;;;;;;2.92;2.60;;;21.00;99.90;;;;;;5049850;28;20048;-70
2023/06/14 14:43:44;;;;;;;8.10;2.42;;;21.20;99.90;;;;;;5045767;28;20063;-70
2023/06/14 14:46:48;;;;;;;3.42;2.08;;;21.40;99.90;;;;;;5049617;28;20059;-69
2023/06/14 14:49:52;;;;;;;7.30;2.50;;;21.40;99.90;;;;;;5045099;28;20044;-71
2023/06/14 14:52:57;;;;;;;3.45;2.30;;;21.40;99.90;;;;;;5047137;28;20040;-70
2023/06/14 14:56:01;;;;;;;3.67;2.40;;;21.60;99.90;;;;;;5048330;28;20067;-71
2023/06/14 14:59:06;;;;;;;3.50;2.38;;;21.40;99.90;;;;;;5048449;28;20044;-70
2023/06/14 15:02:10;;;;;;;5.43;2.95;;;21.10;99.90;;;;;;5046519;28;20115;-71
2023/06/14 15:05:14;;;;;;;6.57;3.00;;;20.80;99.90;;;;;;5048847;28;20103;-71
2023/06/14 15:08:19;;;;;;;6.70;4.10;;;20.80;99.90;;;;;;5049694;28;20063;-71
2023/06/14 15:11:22;;;;;;;4.50;2.90;;;21.00;99.90;;;;;;5045046;28;20044;-71
2023/06/14 15:14:27;;;;;;;3.55;3.00;;;20.90;99.90;;;;;;5049673;28;20039;-71
2023/06/14 15:17:31;;;;;;;5.22;3.00;;;20.90;99.90;;;;;;5031525;28;20503;-71
2023/06/14 15:20:35;;;;;;;5.60;3.00;;;21.00;99.90;;;;;;5030383;28;20060;-71
2023/06/14 15:23:40;;;;;;;4.40;3.47;;;21.10;99.90;;;;;;5030541;28;20048;-71
2023/06/14 15:26:44;;;;;;;6.05;3.40;;;21.20;99.90;;;;;;5032149;28;20045;-71
2023/06/14 15:29:48;;;;;;;5.25;3.45;;;21.30;99.90;;;;;;5030531;28;20398;-71
2023/06/14 15:32:52;;;;;;;6.82;3.50;;;21.40;99.90;;;;;;5030193;28;20052;-73
2023/06/14 15:35:57;;;;;;;8.90;3.40;;;21.20;99.90;;;;;;5018399;28;20053;-71
2023/06/14 15:39:02;;;;;;;4.85;3.10;;;21.10;99.90;;;;;;5030765;28;20053;-73
2023/06/14 15:42:07;;;;;;;4.28;2.85;;;21.20;99.90;;;;;;5030642;28;20060;-70
2023/06/14 15:45:11;;;;;;;9.13;3.63;;;21.30;99.90;;;;;;5030371;28;20044;-71
2023/06/14 15:48:15;;;;;;;4.75;2.90;;;21.30;99.90;;;;;;5030074;28;20491;-71
2023/06/14 15:51:19;;;;;;;5.93;2.88;;;21.40;99.90;;;;;;5029110;28;20048;-71
2023/06/14 15:54:24;;;;;;;5.30;3.13;;;21.30;99.90;;;;;;5029685;28;20044;-71
2023/06/14 15:57:28;;;;;;;7.32;3.67;;;21.30;99.90;;;;;;5028915;28;20041;-71
2023/06/14 16:00:32;;;;;;;4.05;2.92;;;21.30;99.90;;;;;;5029835;28;20036;-70
2023/06/14 16:03:36;;;;;;;7.05;3.60;;;21.10;99.90;;;;;;5029860;28;20052;-70
2023/06/14 16:06:41;;;;;;;6.85;3.47;;;21.00;99.90;;;;;;5029788;28;20050;-70
2023/06/14 16:09:45;;;;;;;5.85;3.10;;;20.90;99.90;;;;;;5029911;28;20055;-70
2023/06/14 16:12:49;;;;;;;4.03;3.00;;;20.80;99.90;;;;;;5029262;28;20044;-70
2023/06/14 16:15:53;;;;;;;4.80;2.63;;;20.70;99.90;;;;;;5029137;28;20660;-70
2023/06/14 16:18:57;;;;;;;3.53;2.63;;;20.70;99.90;;;;;;5029850;28;20392;-70
2023/06/14 16:22:03;;;;;;;6.45;2.63;;;20.70;99.90;;;;;;5029412;28;20511;-70
2023/06/14 16:25:07;;;;;;;3.72;2.50;;;20.60;99.90;;;;;;5028948;28;20068;-69
2023/06/14 16:28:12;;;;;;;5.03;2.63;;;20.60;99.90;;;;;;5029793;28;20049;-69
2023/06/14 16:31:18;;;;;;;7.80;3.08;;;20.70;99.90;;;;;;5029363;28;20506;-70
2023/06/14 16:34:23;;;;;;;3.90;2.45;;;20.80;99.90;;;;;;5031825;28;20053;-70
2023/06/14 16:37:27;;;;;;;6.70;3.42;;;20.80;99.90;;;;;;5033624;28;20044;-70
2023/06/14 16:40:32;;;;;;;12.38;5.05;;;20.90;99.90;;;;;;5033397;28;20049;-70
2023/06/14 16:43:37;;;;;;;7.43;3.53;;;20.80;99.90;;;;;;5033151;28;20384;-69
2023/06/14 16:46:42;;;;;;;4.25;3.38;;;20.70;99.90;;;;;;5033627;28;20782;-70